sensor_id;sensor_type;location;lat;lon;timestamp;P1;durP1;ratioP1;P2;durP2;ratioP2
24259;SDS011;12384;48.112;18.418;2022-10-24T00:01:42;20.13;;;18.23;;
24259;SDS011;12384;48.112;18.418;2022-10-24T00:04:10;19.50;;;17.70;;
24259;SDS011;12384;48.112;18.418;2022-10-24T00:06:39;20.03;;;18.23;;
24259;SDS011;12384;48.112;18.418;2022-10-24T00:09:09;18.20;;;16.53;;
24259;SDS011;12384;48.112;18.418;2022-10-24T00:11:37;18.50;;;16.90;;
24259;SDS011;12384;48.112;18.418;2022-10-24T00:14:09;18.30;;;16.70;;
24259;SDS011;12384;48.112;18.418;2022-10-24T00:16:38;19.37;;;17.57;;
24259;SDS011;12384;48.112;18.418;2022-10-24T00:19:06;17.83;;;16.33;;
24259;SDS011;12384;48.112;18.418;2022-10-24T00:21:34;18.43;;;16.77;;
24259;SDS011;12384;48.112;18.418;2022-10-24T00:24:02;18.87;;;17.17;;
24259;SDS011;12384;48.112;18.418;2022-10-24T00:26:33;20.23;;;18.43;;
24259;SDS011;12384;48.112;18.418;2022-10-24T00:29:01;20.37;;;18.47;;
24259;SDS011;12384;48.112;18.418;2022-10-24T00:31:30;20.33;;;18.37;;
24259;SDS011;12384;48.112;18.418;2022-10-24T00:33:58;19.30;;;17.40;;
24259;SDS011;12384;48.112;18.418;2022-10-24T00:36:27;19.70;;;17.80;;
24259;SDS011;12384;48.112;18.418;2022-10-24T00:38:55;20.73;;;18.73;;
24259;SDS011;12384;48.112;18.418;2022-10-24T00:41:25;22.00;;;19.80;;
24259;SDS011;12384;48.112;18.418;2022-10-24T00:44:16;22.77;;;20.50;;
24259;SDS011;12384;48.112;18.418;2022-10-24T00:46:48;21.43;;;19.33;;
24259;SDS011;12384;48.112;18.418;2022-10-24T00:49:20;21.63;;;19.53;;
24259;SDS011;12384;48.112;18.418;2022-10-24T00:51:53;21.40;;;19.40;;
24259;SDS011;12384;48.112;18.418;2022-10-24T00:54:25;23.23;;;20.73;;
24259;SDS011;12384;48.112;18.418;2022-10-24T00:56:57;21.77;;;19.77;;
24259;SDS011;12384;48.112;18.418;2022-10-24T00:59:30;22.63;;;20.43;;
24259;SDS011;12384;48.112;18.418;2022-10-24T01:02:01;24.30;;;21.90;;
24259;SDS011;12384;48.112;18.418;2022-10-24T01:04:30;23.10;;;20.80;;
24259;SDS011;12384;48.112;18.418;2022-10-24T01:07:05;22.87;;;20.67;;
24259;SDS011;12384;48.112;18.418;2022-10-24T01:09:49;22.33;;;20.07;;
24259;SDS011;12384;48.112;18.418;2022-10-24T01:12:30;20.53;;;18.63;;
24259;SDS011;12384;48.112;18.418;2022-10-24T01:15:16;21.23;;;19.13;;
24259;SDS011;12384;48.112;18.418;2022-10-24T01:17:52;21.07;;;19.13;;
24259;SDS011;12384;48.112;18.418;2022-10-24T01:20:34;21.27;;;18.93;;
24259;SDS011;12384;48.112;18.418;2022-10-24T01:23:24;21.17;;;18.97;;
24259;SDS011;12384;48.112;18.418;2022-10-24T01:26:09;21.60;;;19.33;;
24259;SDS011;12384;48.112;18.418;2022-10-24T01:28:56;22.43;;;20.30;;
24259;SDS011;12384;48.112;18.418;2022-10-24T01:31:34;22.47;;;20.17;;
24259;SDS011;12384;48.112;18.418;2022-10-24T01:34:12;22.60;;;20.30;;
24259;SDS011;12384;48.112;18.418;2022-10-24T01:36:49;21.27;;;19.20;;
24259;SDS011;12384;48.112;18.418;2022-10-24T01:39:22;21.53;;;19.43;;
24259;SDS011;12384;48.112;18.418;2022-10-24T01:41:56;21.27;;;19.27;;
24259;SDS011;12384;48.112;18.418;2022-10-24T01:44:27;20.57;;;18.63;;
24259;SDS011;12384;48.112;18.418;2022-10-24T01:47:02;23.00;;;20.47;;
24259;SDS011;12384;48.112;18.418;2022-10-24T01:49:35;23.30;;;20.90;;
24259;SDS011;12384;48.112;18.418;2022-10-24T01:52:07;26.23;;;23.57;;
24259;SDS011;12384;48.112;18.418;2022-10-24T01:54:39;22.63;;;20.27;;
24259;SDS011;12384;48.112;18.418;2022-10-24T01:57:10;22.60;;;20.30;;
24259;SDS011;12384;48.112;18.418;2022-10-24T01:59:42;22.93;;;20.73;;
24259;SDS011;12384;48.112;18.418;2022-10-24T02:02:14;24.03;;;21.70;;
24259;SDS011;12384;48.112;18.418;2022-10-24T02:04:47;25.90;;;23.40;;
24259;SDS011;12384;48.112;18.418;2022-10-24T02:07:20;23.50;;;21.30;;
24259;SDS011;12384;48.112;18.418;2022-10-24T02:09:55;22.73;;;20.60;;
24259;SDS011;12384;48.112;18.418;2022-10-24T02:12:27;23.10;;;20.80;;
24259;SDS011;12384;48.112;18.418;2022-10-24T02:14:57;25.80;;;23.13;;
24259;SDS011;12384;48.112;18.418;2022-10-24T02:17:30;24.83;;;22.47;;
24259;SDS011;12384;48.112;18.418;2022-10-24T02:19:59;24.83;;;22.43;;
24259;SDS011;12384;48.112;18.418;2022-10-24T02:22:29;26.30;;;23.63;;
24259;SDS011;12384;48.112;18.418;2022-10-24T02:25:06;27.27;;;24.50;;
24259;SDS011;12384;48.112;18.418;2022-10-24T02:27:38;27.60;;;24.80;;
24259;SDS011;12384;48.112;18.418;2022-10-24T02:30:12;25.03;;;22.53;;
24259;SDS011;12384;48.112;18.418;2022-10-24T02:32:46;25.60;;;23.10;;
24259;SDS011;12384;48.112;18.418;2022-10-24T02:35:19;25.07;;;22.50;;
24259;SDS011;12384;48.112;18.418;2022-10-24T02:37:52;25.60;;;23.00;;
24259;SDS011;12384;48.112;18.418;2022-10-24T02:40:23;24.20;;;21.80;;
24259;SDS011;12384;48.112;18.418;2022-10-24T02:42:52;24.70;;;22.30;;
24259;SDS011;12384;48.112;18.418;2022-10-24T02:45:24;25.17;;;22.47;;
24259;SDS011;12384;48.112;18.418;2022-10-24T02:47:55;24.50;;;22.07;;
24259;SDS011;12384;48.112;18.418;2022-10-24T02:50:27;25.77;;;23.17;;
24259;SDS011;12384;48.112;18.418;2022-10-24T02:52:58;26.77;;;23.97;;
24259;SDS011;12384;48.112;18.418;2022-10-24T02:55:27;26.00;;;23.17;;
24259;SDS011;12384;48.112;18.418;2022-10-24T02:57:55;26.40;;;23.70;;
24259;SDS011;12384;48.112;18.418;2022-10-24T03:00:23;25.83;;;23.23;;
24259;SDS011;12384;48.112;18.418;2022-10-24T03:02:52;26.77;;;23.73;;
24259;SDS011;12384;48.112;18.418;2022-10-24T03:05:21;25.03;;;22.53;;
24259;SDS011;12384;48.112;18.418;2022-10-24T03:07:50;24.10;;;21.60;;
24259;SDS011;12384;48.112;18.418;2022-10-24T03:10:18;24.33;;;21.93;;
24259;SDS011;12384;48.112;18.418;2022-10-24T03:12:46;26.17;;;22.93;;
24259;SDS011;12384;48.112;18.418;2022-10-24T03:15:15;22.57;;;20.27;;
24259;SDS011;12384;48.112;18.418;2022-10-24T03:17:43;24.47;;;22.03;;
24259;SDS011;12384;48.112;18.418;2022-10-24T03:20:14;23.83;;;21.40;;
24259;SDS011;12384;48.112;18.418;2022-10-24T03:22:44;24.50;;;22.00;;
24259;SDS011;12384;48.112;18.418;2022-10-24T03:25:13;23.07;;;20.77;;
24259;SDS011;12384;48.112;18.418;2022-10-24T03:27:41;25.73;;;23.07;;
24259;SDS011;12384;48.112;18.418;2022-10-24T03:30:10;23.67;;;21.37;;
24259;SDS011;12384;48.112;18.418;2022-10-24T03:32:39;24.17;;;21.67;;
24259;SDS011;12384;48.112;18.418;2022-10-24T03:35:08;25.13;;;22.57;;
24259;SDS011;12384;48.112;18.418;2022-10-24T03:37:39;26.97;;;23.23;;
24259;SDS011;12384;48.112;18.418;2022-10-24T03:40:10;23.70;;;21.20;;
24259;SDS011;12384;48.112;18.418;2022-10-24T03:42:38;27.37;;;22.47;;
24259;SDS011;12384;48.112;18.418;2022-10-24T03:45:07;27.00;;;24.17;;
24259;SDS011;12384;48.112;18.418;2022-10-24T03:47:36;26.03;;;23.37;;
24259;SDS011;12384;48.112;18.418;2022-10-24T03:50:05;30.73;;;24.87;;
24259;SDS011;12384;48.112;18.418;2022-10-24T03:52:34;28.50;;;24.07;;
24259;SDS011;12384;48.112;18.418;2022-10-24T03:55:02;28.53;;;23.63;;
24259;SDS011;12384;48.112;18.418;2022-10-24T03:57:32;27.73;;;24.67;;
24259;SDS011;12384;48.112;18.418;2022-10-24T04:00:01;27.23;;;23.77;;
24259;SDS011;12384;48.112;18.418;2022-10-24T04:02:31;30.77;;;24.90;;
24259;SDS011;12384;48.112;18.418;2022-10-24T04:05:03;29.37;;;24.37;;
24259;SDS011;12384;48.112;18.418;2022-10-24T04:07:32;29.50;;;23.57;;
24259;SDS011;12384;48.112;18.418;2022-10-24T04:10:00;25.90;;;23.10;;
24259;SDS011;12384;48.112;18.418;2022-10-24T04:12:28;30.57;;;25.53;;
24259;SDS011;12384;48.112;18.418;2022-10-24T04:14:58;32.50;;;25.73;;
24259;SDS011;12384;48.112;18.418;2022-10-24T04:17:30;32.63;;;25.33;;
24259;SDS011;12384;48.112;18.418;2022-10-24T04:19:59;30.87;;;25.00;;
24259;SDS011;12384;48.112;18.418;2022-10-24T04:22:27;27.87;;;24.53;;
24259;SDS011;12384;48.112;18.418;2022-10-24T04:24:55;33.00;;;26.23;;
24259;SDS011;12384;48.112;18.418;2022-10-24T04:27:24;27.40;;;23.17;;
24259;SDS011;12384;48.112;18.418;2022-10-24T04:29:52;24.30;;;21.67;;
24259;SDS011;12384;48.112;18.418;2022-10-24T04:32:22;29.10;;;22.40;;
24259;SDS011;12384;48.112;18.418;2022-10-24T04:34:50;24.07;;;21.43;;
24259;SDS011;12384;48.112;18.418;2022-10-24T04:37:18;24.27;;;20.90;;
24259;SDS011;12384;48.112;18.418;2022-10-24T04:39:47;23.33;;;20.53;;
24259;SDS011;12384;48.112;18.418;2022-10-24T04:42:15;24.63;;;21.67;;
24259;SDS011;12384;48.112;18.418;2022-10-24T04:44:43;19.63;;;17.23;;
24259;SDS011;12384;48.112;18.418;2022-10-24T04:47:12;16.57;;;14.87;;
24259;SDS011;12384;48.112;18.418;2022-10-24T04:49:41;17.43;;;15.60;;
24259;SDS011;12384;48.112;18.418;2022-10-24T04:52:10;16.20;;;14.30;;
24259;SDS011;12384;48.112;18.418;2022-10-24T04:54:38;18.40;;;16.30;;
24259;SDS011;12384;48.112;18.418;2022-10-24T04:57:06;17.00;;;15.37;;
24259;SDS011;12384;48.112;18.418;2022-10-24T04:59:34;18.07;;;15.97;;
24259;SDS011;12384;48.112;18.418;2022-10-24T05:02:03;22.00;;;18.90;;
24259;SDS011;12384;48.112;18.418;2022-10-24T05:04:31;28.03;;;22.03;;
24259;SDS011;12384;48.112;18.418;2022-10-24T05:07:01;24.40;;;21.77;;
24259;SDS011;12384;48.112;18.418;2022-10-24T05:09:29;27.80;;;22.60;;
24259;SDS011;12384;48.112;18.418;2022-10-24T05:11:58;25.80;;;22.13;;
24259;SDS011;12384;48.112;18.418;2022-10-24T05:14:27;27.40;;;24.17;;
24259;SDS011;12384;48.112;18.418;2022-10-24T05:16:56;25.63;;;22.80;;
24259;SDS011;12384;48.112;18.418;2022-10-24T05:19:24;28.07;;;22.87;;
24259;SDS011;12384;48.112;18.418;2022-10-24T05:21:52;28.43;;;23.07;;
24259;SDS011;12384;48.112;18.418;2022-10-24T05:24:23;28.80;;;23.93;;
24259;SDS011;12384;48.112;18.418;2022-10-24T05:26:51;26.80;;;23.70;;
24259;SDS011;12384;48.112;18.418;2022-10-24T05:29:20;27.90;;;23.87;;
24259;SDS011;12384;48.112;18.418;2022-10-24T05:31:48;27.33;;;24.13;;
24259;SDS011;12384;48.112;18.418;2022-10-24T05:34:16;25.00;;;22.33;;
24259;SDS011;12384;48.112;18.418;2022-10-24T05:36:45;27.07;;;24.17;;
24259;SDS011;12384;48.112;18.418;2022-10-24T05:39:13;25.93;;;23.20;;
24259;SDS011;12384;48.112;18.418;2022-10-24T05:41:43;24.77;;;22.13;;
24259;SDS011;12384;48.112;18.418;2022-10-24T05:44:13;28.87;;;25.07;;
24259;SDS011;12384;48.112;18.418;2022-10-24T05:46:42;30.70;;;25.80;;
24259;SDS011;12384;48.112;18.418;2022-10-24T05:49:11;31.03;;;26.17;;
24259;SDS011;12384;48.112;18.418;2022-10-24T05:51:40;29.70;;;25.87;;
24259;SDS011;12384;48.112;18.418;2022-10-24T05:54:09;31.30;;;25.70;;
24259;SDS011;12384;48.112;18.418;2022-10-24T05:56:38;34.73;;;27.27;;
24259;SDS011;12384;48.112;18.418;2022-10-24T05:59:07;32.47;;;27.37;;
24259;SDS011;12384;48.112;18.418;2022-10-24T06:01:36;33.33;;;27.37;;
24259;SDS011;12384;48.112;18.418;2022-10-24T06:04:05;36.47;;;27.23;;
24259;SDS011;12384;48.112;18.418;2022-10-24T06:06:39;34.93;;;28.50;;
24259;SDS011;12384;48.112;18.418;2022-10-24T06:09:09;38.10;;;29.63;;
24259;SDS011;12384;48.112;18.418;2022-10-24T06:11:38;42.87;;;31.97;;
24259;SDS011;12384;48.112;18.418;2022-10-24T06:14:07;40.90;;;29.90;;
24259;SDS011;12384;48.112;18.418;2022-10-24T06:16:36;41.13;;;29.23;;
24259;SDS011;12384;48.112;18.418;2022-10-24T06:19:04;36.37;;;28.80;;
24259;SDS011;12384;48.112;18.418;2022-10-24T06:21:33;35.30;;;27.03;;
24259;SDS011;12384;48.112;18.418;2022-10-24T06:24:01;37.17;;;28.90;;
24259;SDS011;12384;48.112;18.418;2022-10-24T06:26:29;40.83;;;27.93;;
24259;SDS011;12384;48.112;18.418;2022-10-24T06:28:58;34.20;;;27.63;;
24259;SDS011;12384;48.112;18.418;2022-10-24T06:31:27;32.00;;;26.37;;
24259;SDS011;12384;48.112;18.418;2022-10-24T06:33:56;35.40;;;26.67;;
24259;SDS011;12384;48.112;18.418;2022-10-24T06:36:24;36.07;;;28.20;;
24259;SDS011;12384;48.112;18.418;2022-10-24T06:38:57;33.67;;;26.30;;
24259;SDS011;12384;48.112;18.418;2022-10-24T06:41:25;32.03;;;25.83;;
24259;SDS011;12384;48.112;18.418;2022-10-24T06:43:53;31.60;;;24.80;;
24259;SDS011;12384;48.112;18.418;2022-10-24T06:46:22;35.47;;;27.03;;
24259;SDS011;12384;48.112;18.418;2022-10-24T06:48:53;33.90;;;27.03;;
24259;SDS011;12384;48.112;18.418;2022-10-24T06:51:22;31.43;;;25.93;;
24259;SDS011;12384;48.112;18.418;2022-10-24T06:53:51;34.27;;;26.13;;
24259;SDS011;12384;48.112;18.418;2022-10-24T06:56:19;32.83;;;26.03;;
24259;SDS011;12384;48.112;18.418;2022-10-24T06:58:47;35.37;;;25.33;;
24259;SDS011;12384;48.112;18.418;2022-10-24T07:01:17;34.20;;;27.40;;
24259;SDS011;12384;48.112;18.418;2022-10-24T07:03:47;32.00;;;25.90;;
24259;SDS011;12384;48.112;18.418;2022-10-24T07:06:19;35.50;;;28.00;;
24259;SDS011;12384;48.112;18.418;2022-10-24T07:08:49;36.73;;;27.83;;
24259;SDS011;12384;48.112;18.418;2022-10-24T07:11:18;34.30;;;26.73;;
24259;SDS011;12384;48.112;18.418;2022-10-24T07:13:47;35.03;;;25.80;;
24259;SDS011;12384;48.112;18.418;2022-10-24T07:16:16;33.40;;;26.73;;
24259;SDS011;12384;48.112;18.418;2022-10-24T07:18:44;32.30;;;25.07;;
24259;SDS011;12384;48.112;18.418;2022-10-24T07:21:14;29.87;;;25.47;;
24259;SDS011;12384;48.112;18.418;2022-10-24T07:23:46;28.53;;;23.97;;
24259;SDS011;12384;48.112;18.418;2022-10-24T07:26:14;30.97;;;24.70;;
24259;SDS011;12384;48.112;18.418;2022-10-24T07:28:43;29.90;;;24.03;;
24259;SDS011;12384;48.112;18.418;2022-10-24T07:31:15;33.57;;;27.10;;
24259;SDS011;12384;48.112;18.418;2022-10-24T07:33:44;32.03;;;26.67;;
24259;SDS011;12384;48.112;18.418;2022-10-24T07:36:14;30.87;;;24.67;;
24259;SDS011;12384;48.112;18.418;2022-10-24T07:38:47;33.77;;;27.10;;
24259;SDS011;12384;48.112;18.418;2022-10-24T07:41:16;37.63;;;28.03;;
24259;SDS011;12384;48.112;18.418;2022-10-24T07:43:45;38.43;;;29.20;;
24259;SDS011;12384;48.112;18.418;2022-10-24T07:46:14;42.20;;;30.23;;
24259;SDS011;12384;48.112;18.418;2022-10-24T07:48:43;42.10;;;31.33;;
24259;SDS011;12384;48.112;18.418;2022-10-24T07:51:12;46.60;;;31.50;;
24259;SDS011;12384;48.112;18.418;2022-10-24T07:53:41;42.77;;;30.17;;
24259;SDS011;12384;48.112;18.418;2022-10-24T07:56:12;40.10;;;28.57;;
24259;SDS011;12384;48.112;18.418;2022-10-24T07:58:42;39.23;;;28.87;;
24259;SDS011;12384;48.112;18.418;2022-10-24T08:01:13;54.57;;;37.73;;
24259;SDS011;12384;48.112;18.418;2022-10-24T08:03:44;40.10;;;30.43;;
24259;SDS011;12384;48.112;18.418;2022-10-24T08:06:14;33.33;;;27.50;;
24259;SDS011;12384;48.112;18.418;2022-10-24T08:08:44;37.23;;;26.70;;
24259;SDS011;12384;48.112;18.418;2022-10-24T08:11:15;32.80;;;25.27;;
24259;SDS011;12384;48.112;18.418;2022-10-24T08:13:44;28.97;;;23.07;;
24259;SDS011;12384;48.112;18.418;2022-10-24T08:16:13;29.00;;;24.23;;
24259;SDS011;12384;48.112;18.418;2022-10-24T08:18:42;26.80;;;23.83;;
24259;SDS011;12384;48.112;18.418;2022-10-24T08:21:12;25.40;;;22.70;;
24259;SDS011;12384;48.112;18.418;2022-10-24T08:23:42;24.27;;;21.00;;
24259;SDS011;12384;48.112;18.418;2022-10-24T08:26:15;26.00;;;23.13;;
24259;SDS011;12384;48.112;18.418;2022-10-24T08:28:44;24.93;;;22.23;;
24259;SDS011;12384;48.112;18.418;2022-10-24T08:31:14;24.83;;;21.63;;
24259;SDS011;12384;48.112;18.418;2022-10-24T08:33:43;24.47;;;21.87;;
24259;SDS011;12384;48.112;18.418;2022-10-24T08:36:13;27.80;;;24.80;;
24259;SDS011;12384;48.112;18.418;2022-10-24T08:38:45;26.03;;;23.30;;
24259;SDS011;12384;48.112;18.418;2022-10-24T08:41:17;24.37;;;21.77;;
24259;SDS011;12384;48.112;18.418;2022-10-24T08:43:52;26.00;;;22.03;;
24259;SDS011;12384;48.112;18.418;2022-10-24T08:46:29;25.07;;;22.47;;
24259;SDS011;12384;48.112;18.418;2022-10-24T08:49:04;23.73;;;20.23;;
24259;SDS011;12384;48.112;18.418;2022-10-24T08:51:42;23.17;;;20.77;;
24259;SDS011;12384;48.112;18.418;2022-10-24T08:54:15;23.60;;;20.80;;
24259;SDS011;12384;48.112;18.418;2022-10-24T08:56:49;22.13;;;19.83;;
24259;SDS011;12384;48.112;18.418;2022-10-24T08:59:21;23.37;;;20.07;;
24259;SDS011;12384;48.112;18.418;2022-10-24T09:01:50;22.83;;;20.50;;
24259;SDS011;12384;48.112;18.418;2022-10-24T09:04:30;28.40;;;23.60;;
24259;SDS011;12384;48.112;18.418;2022-10-24T09:07:03;26.80;;;22.53;;
24259;SDS011;12384;48.112;18.418;2022-10-24T09:09:33;28.00;;;24.40;;
24259;SDS011;12384;48.112;18.418;2022-10-24T09:12:09;27.07;;;24.17;;
24259;SDS011;12384;48.112;18.418;2022-10-24T09:14:40;26.97;;;24.07;;
24259;SDS011;12384;48.112;18.418;2022-10-24T09:17:11;26.77;;;23.93;;
24259;SDS011;12384;48.112;18.418;2022-10-24T09:19:45;27.20;;;24.00;;
24259;SDS011;12384;48.112;18.418;2022-10-24T09:22:18;27.97;;;24.97;;
24259;SDS011;12384;48.112;18.418;2022-10-24T09:24:49;31.60;;;26.93;;
24259;SDS011;12384;48.112;18.418;2022-10-24T09:27:23;29.00;;;25.13;;
24259;SDS011;12384;48.112;18.418;2022-10-24T09:29:58;26.23;;;23.40;;
24259;SDS011;12384;48.112;18.418;2022-10-24T09:32:27;26.90;;;22.30;;
24259;SDS011;12384;48.112;18.418;2022-10-24T09:34:58;26.73;;;23.83;;
24259;SDS011;12384;48.112;18.418;2022-10-24T09:37:32;26.37;;;23.37;;
24259;SDS011;12384;48.112;18.418;2022-10-24T09:40:21;39.03;;;33.17;;
24259;SDS011;12384;48.112;18.418;2022-10-24T09:42:56;41.77;;;34.87;;
24259;SDS011;12384;48.112;18.418;2022-10-24T09:45:33;35.50;;;31.27;;
24259;SDS011;12384;48.112;18.418;2022-10-24T09:48:06;34.40;;;30.30;;
24259;SDS011;12384;48.112;18.418;2022-10-24T09:50:44;32.13;;;27.83;;
24259;SDS011;12384;48.112;18.418;2022-10-24T09:53:20;31.40;;;26.10;;
24259;SDS011;12384;48.112;18.418;2022-10-24T09:55:52;25.60;;;22.50;;
24259;SDS011;12384;48.112;18.418;2022-10-24T09:58:26;30.40;;;22.17;;
24259;SDS011;12384;48.112;18.418;2022-10-24T10:00:59;25.60;;;21.47;;
24259;SDS011;12384;48.112;18.418;2022-10-24T10:03:30;23.70;;;21.00;;
24259;SDS011;12384;48.112;18.418;2022-10-24T10:06:00;24.97;;;22.37;;
24259;SDS011;12384;48.112;18.418;2022-10-24T10:08:32;22.40;;;20.10;;
24259;SDS011;12384;48.112;18.418;2022-10-24T10:11:04;21.77;;;19.57;;
24259;SDS011;12384;48.112;18.418;2022-10-24T10:13:43;19.90;;;18.10;;
24259;SDS011;12384;48.112;18.418;2022-10-24T10:16:20;21.20;;;18.83;;
24259;SDS011;12384;48.112;18.418;2022-10-24T10:18:51;17.73;;;16.03;;
24259;SDS011;12384;48.112;18.418;2022-10-24T10:21:28;20.83;;;18.63;;
24259;SDS011;12384;48.112;18.418;2022-10-24T10:24:26;18.30;;;16.50;;
24259;SDS011;12384;48.112;18.418;2022-10-24T10:30:18;17.47;;;15.67;;
24259;SDS011;12384;48.112;18.418;2022-10-24T10:32:56;16.53;;;14.93;;
24259;SDS011;12384;48.112;18.418;2022-10-24T10:35:39;18.07;;;16.47;;
24259;SDS011;12384;48.112;18.418;2022-10-24T10:38:16;17.80;;;16.23;;
24259;SDS011;12384;48.112;18.418;2022-10-24T10:41:01;20.33;;;18.43;;
24259;SDS011;12384;48.112;18.418;2022-10-24T10:43:34;21.43;;;19.33;;
24259;SDS011;12384;48.112;18.418;2022-10-24T10:46:11;21.63;;;19.63;;
24259;SDS011;12384;48.112;18.418;2022-10-24T10:48:47;23.33;;;21.30;;
24259;SDS011;12384;48.112;18.418;2022-10-24T10:51:26;21.07;;;19.10;;
24259;SDS011;12384;48.112;18.418;2022-10-24T10:54:04;19.43;;;17.63;;
24259;SDS011;12384;48.112;18.418;2022-10-24T10:56:40;19.03;;;17.23;;
24259;SDS011;12384;48.112;18.418;2022-10-24T10:59:22;17.33;;;15.67;;
24259;SDS011;12384;48.112;18.418;2022-10-24T11:02:07;18.53;;;16.70;;
24259;SDS011;12384;48.112;18.418;2022-10-24T11:04:53;17.23;;;15.73;;
24259;SDS011;12384;48.112;18.418;2022-10-24T11:07:33;16.47;;;15.00;;
24259;SDS011;12384;48.112;18.418;2022-10-24T11:10:07;17.57;;;16.07;;
24259;SDS011;12384;48.112;18.418;2022-10-24T11:12:39;19.80;;;17.90;;
24259;SDS011;12384;48.112;18.418;2022-10-24T11:15:14;17.97;;;16.47;;
24259;SDS011;12384;48.112;18.418;2022-10-24T11:17:49;19.60;;;17.90;;
24259;SDS011;12384;48.112;18.418;2022-10-24T11:20:23;19.17;;;17.57;;
24259;SDS011;12384;48.112;18.418;2022-10-24T11:22:55;18.93;;;17.23;;
24259;SDS011;12384;48.112;18.418;2022-10-24T11:25:31;23.00;;;20.70;;
24259;SDS011;12384;48.112;18.418;2022-10-24T11:28:05;22.07;;;20.03;;
24259;SDS011;12384;48.112;18.418;2022-10-24T11:30:41;20.43;;;18.63;;
24259;SDS011;12384;48.112;18.418;2022-10-24T11:33:17;20.77;;;18.97;;
24259;SDS011;12384;48.112;18.418;2022-10-24T11:38:39;20.70;;;18.70;;
24259;SDS011;12384;48.112;18.418;2022-10-24T11:41:15;18.73;;;17.00;;
24259;SDS011;12384;48.112;18.418;2022-10-24T11:43:57;19.30;;;17.67;;
24259;SDS011;12384;48.112;18.418;2022-10-24T11:46:31;18.73;;;17.13;;
24259;SDS011;12384;48.112;18.418;2022-10-24T11:49:07;18.20;;;16.60;;
24259;SDS011;12384;48.112;18.418;2022-10-24T11:51:45;18.00;;;16.40;;
24259;SDS011;12384;48.112;18.418;2022-10-24T11:54:18;20.00;;;18.20;;
24259;SDS011;12384;48.112;18.418;2022-10-24T11:56:50;17.70;;;16.20;;
24259;SDS011;12384;48.112;18.418;2022-10-24T11:59:22;18.60;;;16.80;;
24259;SDS011;12384;48.112;18.418;2022-10-24T12:05:04;21.23;;;19.23;;
24259;SDS011;12384;48.112;18.418;2022-10-24T12:07:56;20.63;;;18.83;;
24259;SDS011;12384;48.112;18.418;2022-10-24T12:10:58;20.60;;;18.90;;
24259;SDS011;12384;48.112;18.418;2022-10-24T12:13:46;21.33;;;19.43;;
24259;SDS011;12384;48.112;18.418;2022-10-24T12:16:30;21.40;;;19.50;;
24259;SDS011;12384;48.112;18.418;2022-10-24T12:19:09;21.83;;;19.93;;
24259;SDS011;12384;48.112;18.418;2022-10-24T12:21:43;21.40;;;19.50;;
24259;SDS011;12384;48.112;18.418;2022-10-24T12:24:18;23.87;;;21.53;;
24259;SDS011;12384;48.112;18.418;2022-10-24T12:26:54;20.60;;;18.87;;
24259;SDS011;12384;48.112;18.418;2022-10-24T12:29:25;20.73;;;19.03;;
24259;SDS011;12384;48.112;18.418;2022-10-24T12:31:54;23.90;;;21.60;;
24259;SDS011;12384;48.112;18.418;2022-10-24T12:34:29;22.07;;;20.17;;
24259;SDS011;12384;48.112;18.418;2022-10-24T12:37:35;20.23;;;18.53;;
24259;SDS011;12384;48.112;18.418;2022-10-24T12:43:14;21.13;;;19.30;;
24259;SDS011;12384;48.112;18.418;2022-10-24T12:45:53;18.97;;;17.47;;
24259;SDS011;12384;48.112;18.418;2022-10-24T12:48:27;18.20;;;16.80;;
24259;SDS011;12384;48.112;18.418;2022-10-24T12:50:59;20.60;;;18.80;;
24259;SDS011;12384;48.112;18.418;2022-10-24T12:53:32;25.27;;;22.57;;
24259;SDS011;12384;48.112;18.418;2022-10-24T12:58:55;21.37;;;19.57;;
24259;SDS011;12384;48.112;18.418;2022-10-24T13:01:26;22.30;;;20.30;;
24259;SDS011;12384;48.112;18.418;2022-10-24T13:07:35;19.87;;;18.37;;
24259;SDS011;12384;48.112;18.418;2022-10-24T13:10:26;19.30;;;17.80;;
24259;SDS011;12384;48.112;18.418;2022-10-24T13:15:57;21.20;;;19.50;;
24259;SDS011;12384;48.112;18.418;2022-10-24T13:18:39;20.20;;;18.60;;
24259;SDS011;12384;48.112;18.418;2022-10-24T13:21:19;18.27;;;16.77;;
24259;SDS011;12384;48.112;18.418;2022-10-24T13:24:07;19.00;;;17.60;;
24259;SDS011;12384;48.112;18.418;2022-10-24T13:26:40;19.67;;;18.07;;
24259;SDS011;12384;48.112;18.418;2022-10-24T13:29:11;20.60;;;18.67;;
24259;SDS011;12384;48.112;18.418;2022-10-24T13:34:20;20.40;;;18.70;;
24259;SDS011;12384;48.112;18.418;2022-10-24T13:36:51;20.63;;;18.90;;
24259;SDS011;12384;48.112;18.418;2022-10-24T13:39:26;20.20;;;18.60;;
24259;SDS011;12384;48.112;18.418;2022-10-24T13:42:05;19.50;;;17.87;;
24259;SDS011;12384;48.112;18.418;2022-10-24T13:44:41;21.17;;;19.37;;
24259;SDS011;12384;48.112;18.418;2022-10-24T13:47:14;20.07;;;18.43;;
24259;SDS011;12384;48.112;18.418;2022-10-24T13:49:52;20.87;;;19.17;;
24259;SDS011;12384;48.112;18.418;2022-10-24T13:52:25;22.93;;;20.87;;
24259;SDS011;12384;48.112;18.418;2022-10-24T13:55:01;21.27;;;19.40;;
24259;SDS011;12384;48.112;18.418;2022-10-24T13:57:50;19.27;;;17.67;;
24259;SDS011;12384;48.112;18.418;2022-10-24T14:00:21;20.30;;;18.50;;
24259;SDS011;12384;48.112;18.418;2022-10-24T14:02:51;20.03;;;18.43;;
24259;SDS011;12384;48.112;18.418;2022-10-24T14:05:29;19.50;;;18.03;;
24259;SDS011;12384;48.112;18.418;2022-10-24T14:08:00;18.73;;;17.27;;
24259;SDS011;12384;48.112;18.418;2022-10-24T14:10:29;18.07;;;16.67;;
24259;SDS011;12384;48.112;18.418;2022-10-24T14:12:59;19.50;;;17.87;;
24259;SDS011;12384;48.112;18.418;2022-10-24T14:15:30;19.87;;;18.27;;
24259;SDS011;12384;48.112;18.418;2022-10-24T14:17:59;24.03;;;21.63;;
24259;SDS011;12384;48.112;18.418;2022-10-24T14:20:29;25.20;;;22.73;;
24259;SDS011;12384;48.112;18.418;2022-10-24T14:22:59;22.53;;;20.53;;
24259;SDS011;12384;48.112;18.418;2022-10-24T14:25:29;22.57;;;20.57;;
24259;SDS011;12384;48.112;18.418;2022-10-24T14:28:08;23.27;;;21.10;;
24259;SDS011;12384;48.112;18.418;2022-10-24T14:30:51;22.70;;;20.70;;
24259;SDS011;12384;48.112;18.418;2022-10-24T14:33:22;22.47;;;20.37;;
24259;SDS011;12384;48.112;18.418;2022-10-24T14:35:52;20.77;;;19.17;;
24259;SDS011;12384;48.112;18.418;2022-10-24T14:38:23;20.87;;;18.90;;
24259;SDS011;12384;48.112;18.418;2022-10-24T14:40:53;20.27;;;18.47;;
24259;SDS011;12384;48.112;18.418;2022-10-24T14:43:36;20.93;;;19.13;;
24259;SDS011;12384;48.112;18.418;2022-10-24T14:48:59;23.20;;;20.97;;
24259;SDS011;12384;48.112;18.418;2022-10-24T14:51:46;22.50;;;20.27;;
24259;SDS011;12384;48.112;18.418;2022-10-24T14:54:17;21.73;;;19.70;;
24259;SDS011;12384;48.112;18.418;2022-10-24T14:56:47;22.77;;;20.77;;
24259;SDS011;12384;48.112;18.418;2022-10-24T14:59:20;20.90;;;19.23;;
24259;SDS011;12384;48.112;18.418;2022-10-24T15:01:53;20.93;;;19.33;;
24259;SDS011;12384;48.112;18.418;2022-10-24T15:04:29;23.00;;;21.20;;
24259;SDS011;12384;48.112;18.418;2022-10-24T15:07:11;21.33;;;19.63;;